Time;durP1;ratioP1;P1;durP2;ratioP2;P2;SDS_P1;SDS_P2;PMS_P1;PMS_P2;Temp;Humidity;BMP_temperature;BMP_pressure;BME280_temperature;BME280_humidity;BME280_pressure;Samples;Min_cycle;Max_cycle;Signal;HPM_P1;HPM_P2
2021/10/20 00:00:36;;;;;;;8.15;5.78;;;22.80;40.10;;;;;;4773821;29;20058;-55
2021/10/20 00:03:03;;;;;;;8.40;6.22;;;22.80;40.10;;;;;;4782636;29;20059;-54
2021/10/20 00:05:34;;;;;;;;;;;22.80;40.10;;;;;;4782773;29;20120;-54
2021/10/20 00:08:03;;;;;;;8.30;6.38;;;22.80;40.10;;;;;;4775236;29;20023;-54
2021/10/20 00:10:30;;;;;;;8.07;6.20;;;22.80;40.20;;;;;;4771471;29;20059;-53
2021/10/20 00:12:57;;;;;;;7.75;6.03;;;22.80;40.70;;;;;;4778445;29;20296;-54
2021/10/20 00:15:24;;;;;;;9.48;6.68;;;22.80;40.10;;;;;;4781788;29;20090;-55
2021/10/20 00:17:52;;;;;;;8.48;6.40;;;22.80;40.20;;;;;;4777177;29;20304;-53
2021/10/20 00:20:22;;;;;;;8.30;6.25;;;22.80;40.20;;;;;;4770361;29;20051;-55
2021/10/20 00:22:51;;;;;;;7.63;5.70;;;22.80;40.20;;;;;;4781776;29;20258;-55
2021/10/20 00:25:18;;;;;;;6.03;5.30;;;22.80;40.20;;;;;;4782468;29;20291;-55
2021/10/20 00:27:46;;;;;;;8.57;6.22;;;22.80;40.10;;;;;;4774838;29;20086;-55
2021/10/20 00:30:15;;;;;;;6.75;5.65;;;22.80;40.10;;;;;;4772588;29;20171;-55
2021/10/20 00:32:44;;;;;;;7.30;5.68;;;22.80;40.10;;;;;;4782811;29;20051;-58
2021/10/20 00:35:12;;;;;;;7.53;5.93;;;22.80;40.10;;;;;;4781950;29;20053;-53
2021/10/20 00:37:39;;;;;;;7.22;5.68;;;22.80;40.10;;;;;;4775399;29;20694;-54
2021/10/20 00:40:07;;;;;;;7.95;5.93;;;22.80;40.10;;;;;;4772189;29;20501;-55
2021/10/20 00:42:35;;;;;;;6.55;5.25;;;22.80;40.10;;;;;;4782067;29;20306;-55
2021/10/20 00:45:04;;;;;;;6.10;5.43;;;22.80;40.10;;;;;;4781782;29;20054;-55
2021/10/20 00:47:33;;;;;;;7.05;5.97;;;22.80;40.10;;;;;;4779437;29;20147;-55
2021/10/20 00:50:00;;;;;;;9.60;6.00;;;22.80;40.10;;;;;;4767697;29;20063;-54
2021/10/20 00:52:27;;;;;;;8.07;6.38;;;22.80;40.10;;;;;;4782068;29;20516;-55
2021/10/20 00:54:56;;;;;;;7.38;5.22;;;22.80;40.10;;;;;;4782083;29;20512;-55
2021/10/20 00:57:26;;;;;;;7.03;5.82;;;22.80;40.10;;;;;;4780128;29;20065;-54
2021/10/20 00:59:55;;;;;;;6.35;5.50;;;22.80;40.10;;;;;;4767605;29;20047;-56
2021/10/20 01:02:23;;;;;;;10.15;6.18;;;22.80;40.10;;;;;;4781660;29;20075;-56
2021/10/20 01:04:50;;;;;;;6.85;5.72;;;22.80;40.10;;;;;;4781872;29;20055;-55
2021/10/20 01:07:18;;;;;;;6.65;5.50;;;22.80;40.10;;;;;;4781763;29;20134;-55
2021/10/20 01:09:46;;;;;;;7.22;5.70;;;22.80;40.10;;;;;;4764337;29;20095;-54
2021/10/20 01:12:18;;;;;;;7.05;5.93;;;22.80;40.60;;;;;;4782070;29;20138;-55
2021/10/20 01:14:45;;;;;;;7.18;5.78;;;22.80;40.00;;;;;;4781380;29;20136;-54
2021/10/20 01:17:12;;;;;;;7.35;5.88;;;22.80;40.00;;;;;;4781511;29;20498;-54
2021/10/20 01:19:43;;;;;;;8.60;5.63;;;22.80;40.00;;;;;;4764041;29;20056;-55
2021/10/20 01:22:11;;;;;;;7.07;5.28;;;22.80;40.10;;;;;;4781891;29;20565;-55
2021/10/20 01:24:39;;;;;;;5.95;5.35;;;22.80;40.10;;;;;;4780116;30;20558;-53
2021/10/20 01:27:07;;;;;;;7.72;5.95;;;22.70;40.10;;;;;;4781527;29;20146;-54
2021/10/20 01:29:34;;;;;;;6.07;5.18;;;22.80;40.10;;;;;;4764225;29;20422;-56
2021/10/20 01:32:05;;;;;;;6.97;5.40;;;22.70;40.10;;;;;;4780924;29;20451;-54
2021/10/20 01:34:33;;;;;;;6.78;5.70;;;22.70;40.10;;;;;;4780797;29;20134;-53
2021/10/20 01:37:03;;;;;;;6.88;5.80;;;22.70;40.10;;;;;;4781498;29;20146;-55
2021/10/20 01:39:31;;;;;;;6.70;5.63;;;22.70;40.10;;;;;;4762442;30;20140;-54
2021/10/20 01:41:58;;;;;;;7.35;5.55;;;22.70;40.10;;;;;;4780837;29;20217;-55
2021/10/20 01:44:25;;;;;;;6.60;5.30;;;22.70;40.10;;;;;;4780200;30;20076;-55
2021/10/20 01:46:53;;;;;;;6.75;5.82;;;22.70;40.10;;;;;;4781711;29;20059;-54
2021/10/20 01:49:20;;;;;;;5.90;5.30;;;22.70;40.10;;;;;;4764299;29;21012;-54
2021/10/20 01:51:47;;;;;;;8.85;5.90;;;22.70;40.10;;;;;;4780864;29;20055;-56
2021/10/20 01:54:14;;;;;;;5.63;5.03;;;22.70;40.10;;;;;;4779852;30;20053;-55
2021/10/20 01:56:42;;;;;;;6.57;5.63;;;22.70;40.10;;;;;;4780551;29;20176;-55
2021/10/20 01:59:09;;;;;;;7.32;5.45;;;22.70;40.10;;;;;;4764357;29;20065;-53
2021/10/20 02:01:36;;;;;;;5.68;4.97;;;22.70;40.10;;;;;;4779820;29;20062;-55
2021/10/20 02:04:12;;;;;;;7.57;5.50;;;22.70;40.10;;;;;;4781120;29;20056;-51
2021/10/20 02:06:43;;;;;;;7.10;5.45;;;22.80;40.10;;;;;;4780990;29;20051;-56
2021/10/20 02:09:11;;;;;;;9.05;5.68;;;22.70;40.00;;;;;;4762150;29;20051;-55
2021/10/20 02:11:41;;;;;;;6.65;5.35;;;22.70;40.00;;;;;;4763097;30;20170;-55
2021/10/20 02:14:11;;;;;;;8.10;6.15;;;22.70;40.00;;;;;;4763304;30;20151;-54
2021/10/20 02:16:39;;;;;;;7.05;5.32;;;22.70;40.00;;;;;;4762907;30;20566;-55
2021/10/20 02:19:07;;;;;;;6.13;5.07;;;22.70;40.00;;;;;;4758536;30;20074;-55
2021/10/20 02:21:35;;;;;;;7.43;5.60;;;22.70;40.00;;;;;;4780729;29;20142;-54
2021/10/20 02:24:02;;;;;;;6.57;5.40;;;22.70;40.00;;;;;;4781202;29;20142;-56
2021/10/20 02:26:30;;;;;;;6.72;5.50;;;22.70;40.00;;;;;;4779960;29;20079;-54
2021/10/20 02:28:57;;;;;;;6.90;5.65;;;22.70;40.00;;;;;;4765789;29;20120;-55
2021/10/20 02:31:24;;;;;;;5.97;4.88;;;22.70;40.00;;;;;;4780593;29;20277;-55
2021/10/20 02:33:51;;;;;;;6.47;5.32;;;22.70;40.00;;;;;;4781015;29;20116;-55
2021/10/20 02:36:18;;;;;;;5.40;4.70;;;22.70;40.00;;;;;;4780674;29;20347;-56
2021/10/20 02:38:45;;;;;;;6.97;5.68;;;22.70;40.00;;;;;;4769906;29;20090;-56
2021/10/20 02:41:12;;;;;;;7.07;5.28;;;22.70;39.90;;;;;;4777740;29;20054;-55
2021/10/20 02:43:40;;;;;;;7.18;5.68;;;22.70;39.90;;;;;;4782312;29;20560;-54
2021/10/20 02:46:07;;;;;;;5.72;4.95;;;22.70;40.00;;;;;;4784724;29;20051;-55
2021/10/20 02:48:34;;;;;;;5.43;4.70;;;22.70;40.00;;;;;;4772339;29;20378;-54
2021/10/20 02:51:02;;;;;;;6.30;4.93;;;22.70;40.00;;;;;;4778198;29;20051;-55
2021/10/20 02:53:29;;;;;;;6.00;4.95;;;22.70;40.00;;;;;;4783356;29;20083;-54
2021/10/20 02:55:56;;;;;;;5.82;4.82;;;22.70;40.00;;;;;;4784135;29;20138;-54
2021/10/20 02:58:23;;;;;;;5.65;4.95;;;22.70;40.00;;;;;;4771334;29;20055;-54
2021/10/20 03:00:51;;;;;;;5.28;4.75;;;22.70;40.00;;;;;;4773793;29;20363;-53
2021/10/20 03:03:18;;;;;;;7.47;5.00;;;22.70;40.00;;;;;;4765995;30;20087;-54
2021/10/20 03:05:45;;;;;;;5.93;4.45;;;22.70;40.00;;;;;;4765662;30;20134;-56
2021/10/20 03:08:12;;;;;;;6.03;4.97;;;22.70;40.00;;;;;;4761405;30;20138;-55
2021/10/20 03:10:40;;;;;;;6.47;5.10;;;22.60;40.00;;;;;;4778507;29;20153;-55
2021/10/20 03:13:08;;;;;;;6.18;4.47;;;22.70;40.00;;;;;;4783600;29;20051;-54
2021/10/20 03:15:35;;;;;;;6.45;4.95;;;22.70;40.00;;;;;;4783580;29;20067;-55
2021/10/20 03:18:02;;;;;;;6.32;5.15;;;22.70;40.00;;;;;;4775451;29;20059;-54
2021/10/20 03:20:30;;;;;;;6.10;4.68;;;22.70;40.00;;;;;;4771417;29;20148;-54
2021/10/20 03:22:57;;;;;;;6.18;5.22;;;22.70;40.00;;;;;;4783379;29;20086;-56
2021/10/20 03:25:26;;;;;;;5.50;5.00;;;22.70;40.00;;;;;;4782993;29;20402;-55
2021/10/20 03:27:53;;;;;;;5.00;4.50;;;22.70;40.00;;;;;;4776602;29;20481;-56
2021/10/20 03:30:22;;;;;;;8.32;5.00;;;22.70;40.00;;;;;;4774325;29;20055;-56
2021/10/20 03:32:50;;;;;;;5.10;4.10;;;22.70;39.90;;;;;;4781796;30;20146;-54
2021/10/20 03:35:18;;;;;;;4.95;4.47;;;22.70;39.90;;;;;;4783125;29;20087;-55
2021/10/20 03:37:46;;;;;;;5.50;4.95;;;22.70;40.00;;;;;;4770657;29;20182;-55
2021/10/20 03:40:14;;;;;;;6.65;5.25;;;22.70;39.90;;;;;;4772728;29;20059;-57
2021/10/20 03:42:42;;;;;;;5.22;4.35;;;22.70;39.90;;;;;;4781483;29;20075;-53
2021/10/20 03:45:10;;;;;;;5.60;4.55;;;22.70;39.90;;;;;;4783129;29;20051;-55
2021/10/20 03:47:37;;;;;;;5.80;4.68;;;22.70;39.90;;;;;;4776699;29;20596;-56
2021/10/20 03:50:05;;;;;;;5.70;4.68;;;22.70;39.90;;;;;;4767320;29;20506;-56
2021/10/20 03:52:32;;;;;;;5.18;4.65;;;22.70;39.90;;;;;;4771747;29;20134;-55
2021/10/20 03:55:00;;;;;;;5.25;4.35;;;22.70;39.90;;;;;;4773475;29;20048;-53
2021/10/20 03:57:27;;;;;;;4.95;4.38;;;22.70;39.90;;;;;;4772102;29;20158;-57
2021/10/20 03:59:54;;;;;;;4.60;4.20;;;22.70;39.90;;;;;;4766061;29;20116;-56
2021/10/20 04:02:21;;;;;;;5.25;4.65;;;22.70;39.90;;;;;;4780087;29;20115;-54
2021/10/20 04:04:48;;;;;;;5.07;4.18;;;22.70;39.90;;;;;;4782083;29;20055;-54
2021/10/20 04:07:15;;;;;;;5.90;4.53;;;22.70;39.90;;;;;;4782901;29;20066;-56
2021/10/20 04:09:42;;;;;;;4.88;4.40;;;22.70;39.90;;;;;;4765549;29;20506;-54
2021/10/20 04:12:09;;;;;;;5.63;4.25;;;22.70;39.90;;;;;;4780368;30;20723;-55
2021/10/20 04:14:36;;;;;;;5.40;4.32;;;22.70;39.90;;;;;;4778668;29;20493;-54
2021/10/20 04:17:03;;;;;;;4.53;4.13;;;22.70;39.90;;;;;;4773461;29;20495;-57
2021/10/20 04:19:31;;;;;;;4.70;4.25;;;22.70;40.00;;;;;;4756487;29;20095;-55
2021/10/20 04:21:58;;;;;;;5.70;4.90;;;22.60;39.90;;;;;;4780702;29;20069;-55
2021/10/20 04:24:25;;;;;;;4.50;4.05;;;22.60;39.90;;;;;;4773788;30;20056;-56
2021/10/20 04:26:52;;;;;;;5.00;4.13;;;22.70;40.00;;;;;;4773117;29;20142;-57
2021/10/20 04:29:19;;;;;;;4.82;4.32;;;22.70;39.90;;;;;;4761001;29;20233;-55
2021/10/20 04:31:46;;;;;;;5.05;4.55;;;22.60;39.90;;;;;;4772239;29;20366;-53
2021/10/20 04:34:14;;;;;;;4.85;3.75;;;22.60;39.90;;;;;;4774830;29;20078;-55
2021/10/20 04:36:41;;;;;;;5.05;4.15;;;22.60;39.90;;;;;;4770466;29;20547;-56
2021/10/20 04:39:13;;;;;;;6.72;4.75;;;22.60;39.90;;;;;;4756740;29;20545;-55
2021/10/20 04:41:40;;;;;;;5.35;4.47;;;22.60;39.90;;;;;;4775317;29;20071;-57
2021/10/20 04:44:07;;;;;;;5.13;4.63;;;22.60;39.90;;;;;;4773695;29;20485;-55
2021/10/20 04:46:39;;;;;;;5.78;4.00;;;22.60;40.40;;;;;;4770775;29;20070;-56
2021/10/20 04:49:06;;;;;;;6.82;4.20;;;22.60;39.90;;;;;;4755514;29;20676;-56
2021/10/20 04:51:33;;;;;;;4.95;4.40;;;22.70;39.90;;;;;;4772249;30;20057;-54
2021/10/20 04:54:00;;;;;;;5.50;4.30;;;22.70;39.90;;;;;;4773868;30;20134;-55
2021/10/20 04:56:27;;;;;;;5.15;4.25;;;22.70;39.90;;;;;;4770957;30;20047;-57
2021/10/20 04:58:54;;;;;;;4.35;3.72;;;22.70;39.90;;;;;;4763819;30;20146;-57
2021/10/20 05:01:22;;;;;;;5.28;4.00;;;22.60;39.80;;;;;;4778370;29;20170;-54
2021/10/20 05:03:49;;;;;;;5.93;4.75;;;22.60;39.80;;;;;;4777760;29;20063;-57
2021/10/20 05:06:16;;;;;;;5.75;4.30;;;22.60;39.70;;;;;;4778853;29;20183;-56
2021/10/20 05:08:43;;;;;;;5.63;4.40;;;22.70;39.60;;;;;;4763230;29;20083;-55
2021/10/20 05:11:13;;;;;;;8.38;4.65;;;22.70;39.40;;;;;;4767407;30;20485;-55
2021/10/20 05:13:41;;;;;;;5.07;4.07;;;22.70;39.30;;;;;;4777262;30;20087;-55
2021/10/20 05:16:08;;;;;;;7.28;4.50;;;22.60;39.20;;;;;;4778960;29;20051;-55
2021/10/20 05:18:35;;;;;;;4.65;4.25;;;22.60;39.10;;;;;;4764567;29;20093;-57
2021/10/20 05:21:02;;;;;;;5.90;4.70;;;22.70;39.10;;;;;;4771625;30;20424;-55
2021/10/20 05:23:29;;;;;;;5.80;4.00;;;22.70;39.10;;;;;;4774722;30;20146;-54
2021/10/20 05:25:56;;;;;;;5.20;4.40;;;22.70;39.20;;;;;;4772793;29;20059;-57
2021/10/20 05:28:24;;;;;;;5.72;3.80;;;22.70;39.30;;;;;;4758444;29;20059;-55
2021/10/20 05:30:51;;;;;;;4.18;3.75;;;22.70;39.50;;;;;;4769967;29;20051;-56
2021/10/20 05:33:19;;;;;;;5.20;4.43;;;22.60;39.70;;;;;;4774764;29;20075;-56
2021/10/20 05:35:46;;;;;;;4.28;3.85;;;22.60;39.90;;;;;;4775205;29;20047;-53
2021/10/20 05:38:13;;;;;;;5.93;4.88;;;22.60;40.00;;;;;;4769193;29;20138;-53
2021/10/20 05:40:40;;;;;;;6.28;4.38;;;22.60;40.10;;;;;;4764389;29;20139;-56
2021/10/20 05:43:08;;;;;;;5.93;4.20;;;22.60;40.20;;;;;;4772685;29;20150;-56
2021/10/20 05:45:35;;;;;;;3.90;3.60;;;22.60;40.30;;;;;;4768652;29;20816;-57
2021/10/20 05:48:02;;;;;;;5.03;4.18;;;22.70;40.40;;;;;;4768588;29;20119;-57
2021/10/20 05:50:30;;;;;;;4.40;4.00;;;22.70;40.40;;;;;;4761770;29;20132;-57
2021/10/20 05:52:57;;;;;;;4.28;3.88;;;22.70;40.50;;;;;;4773144;29;20158;-58
2021/10/20 05:55:24;;;;;;;6.20;4.63;;;22.70;40.60;;;;;;4772570;29;20058;-57
2021/10/20 05:57:52;;;;;;;7.72;5.43;;;22.80;40.70;;;;;;4765918;29;20167;-57
2021/10/20 06:00:19;;;;;;;5.78;4.80;;;22.80;40.70;;;;;;4759979;29;20378;-57
2021/10/20 06:02:46;;;;;;;6.85;5.22;;;22.90;40.70;;;;;;4768500;29;20059;-57
2021/10/20 06:05:13;;;;;;;8.93;5.40;;;22.90;40.60;;;;;;4777175;29;20570;-58
2021/10/20 06:07:45;;;;;;;11.40;6.18;;;22.90;40.50;;;;;;4767981;29;20091;-57
2021/10/20 06:10:14;;;;;;;10.60;6.65;;;23.00;40.50;;;;;;4763158;29;20486;-53
2021/10/20 06:12:42;;;;;;;9.83;7.47;;;23.00;40.40;;;;;;4784614;29;20540;-59
2021/10/20 06:15:13;;;;;;;10.15;7.10;;;23.10;40.50;;;;;;4787506;29;20295;-57
2021/10/20 06:18:01;;;;;;;11.48;7.25;;;23.10;40.50;;;;;;4787044;29;20065;-55
2021/10/20 06:20:29;;;;;;;13.90;7.75;;;23.20;40.50;;;;;;4783198;29;20565;-59
2021/10/20 06:22:56;;;;;;;14.25;7.45;;;23.20;40.50;;;;;;4786617;29;20059;-54
2021/10/20 06:25:23;;;;;;;13.82;7.57;;;23.30;40.60;;;;;;4778146;29;20048;-57
2021/10/20 06:27:50;;;;;;;14.40;8.85;;;23.30;40.60;;;;;;4767208;29;20063;-58
2021/10/20 06:30:17;;;;;;;15.25;8.80;;;23.30;40.60;;;;;;4761919;29;20490;-52
2021/10/20 06:32:45;;;;;;;16.95;9.43;;;23.40;40.60;;;;;;4774832;29;20055;-59
2021/10/20 06:35:13;;;;;;;19.30;10.35;;;23.40;40.50;;;;;;4770083;29;20069;-58
2021/10/20 06:37:47;;;;;;;27.83;10.52;;;23.40;40.40;;;;;;4771485;30;20078;-58
2021/10/20 06:40:15;;;;;;;19.75;10.65;;;23.50;40.30;;;;;;4767812;29;20082;-58
2021/10/20 06:42:42;;;;;;;20.58;11.50;;;23.50;40.20;;;;;;4780487;29;20159;-57
2021/10/20 06:45:10;;;;;;;24.45;12.32;;;23.50;40.10;;;;;;4778871;29;20075;-57
2021/10/20 06:47:37;;;;;;;26.45;12.73;;;23.50;40.00;;;;;;4776085;29;20047;-58
2021/10/20 06:50:05;;;;;;;32.65;15.60;;;23.60;40.00;;;;;;4759516;30;20535;-59
2021/10/20 06:52:32;;;;;;;35.10;16.42;;;23.60;39.90;;;;;;4777152;30;20550;-57
2021/10/20 06:54:59;;;;;;;38.20;17.63;;;23.60;39.90;;;;;;4773819;30;20138;-58
2021/10/20 06:57:27;;;;;;;43.80;18.52;;;23.60;39.90;;;;;;4776111;29;20081;-59
2021/10/20 06:59:54;;;;;;;48.67;20.70;;;23.60;39.90;;;;;;4759135;29;20059;-59
2021/10/20 07:02:21;;;;;;;49.08;20.45;;;23.70;40.00;;;;;;4774334;30;20116;-58
2021/10/20 07:04:48;;;;;;;52.33;22.45;;;23.70;39.90;;;;;;4776858;29;20738;-58
2021/10/20 07:07:16;;;;;;;56.70;23.25;;;23.70;39.90;;;;;;4775361;29;20055;-57
2021/10/20 07:09:43;;;;;;;53.20;23.15;;;23.70;39.80;;;;;;4758520;29;20083;-57
2021/10/20 07:12:10;;;;;;;57.53;23.50;;;23.80;39.90;;;;;;4774170;29;20146;-56
2021/10/20 07:14:37;;;;;;;53.33;23.35;;;23.80;39.80;;;;;;4760749;30;20427;-56
2021/10/20 07:17:08;;;;;;;59.38;25.83;;;23.80;39.80;;;;;;4774076;30;20063;-56
2021/10/20 07:19:38;;;;;;;54.85;25.25;;;23.90;39.90;;;;;;4757859;29;20060;-59
2021/10/20 07:22:07;;;;;;;66.68;25.75;;;23.90;39.90;;;;;;4775699;30;20143;-57
2021/10/20 07:24:34;;;;;;;64.38;26.10;;;24.00;40.00;;;;;;4779282;29;20059;-59
2021/10/20 07:27:03;;;;;;;56.67;25.77;;;24.00;39.90;;;;;;4779764;29;20097;-59
2021/10/20 07:29:31;;;;;;;60.97;25.27;;;24.00;40.00;;;;;;4763168;29;20055;-57
2021/10/20 07:31:59;;;;;;;66.95;27.77;;;24.10;40.00;;;;;;4770055;29;20139;-58
2021/10/20 07:34:26;;;;;;;65.65;27.80;;;24.10;40.10;;;;;;4775336;29;20173;-58
2021/10/20 07:36:55;;;;;;;66.18;26.98;;;24.20;40.00;;;;;;4775772;29;20134;-56
2021/10/20 07:39:23;;;;;;;63.50;27.60;;;24.20;40.00;;;;;;4756908;29;20059;-58
2021/10/20 07:41:50;;;;;;;63.45;27.15;;;24.20;40.10;;;;;;4767932;29;20067;-59
2021/10/20 07:44:17;;;;;;;68.80;27.70;;;24.30;40.20;;;;;;4770090;29;20729;-54
2021/10/20 07:46:44;;;;;;;59.08;25.67;;;24.30;40.30;;;;;;4775527;29;20061;-57
2021/10/20 07:49:13;;;;;;;67.45;25.85;;;24.40;40.40;;;;;;4761467;29;20134;-58
2021/10/20 07:51:40;;;;;;;66.85;27.73;;;24.40;40.50;;;;;;4756024;29;20104;-57
2021/10/20 07:54:07;;;;;;;65.63;27.77;;;24.40;40.40;;;;;;4778164;29;20051;-56
2021/10/20 07:56:42;;;;;;;69.13;27.20;;;24.50;40.40;;;;;;4774601;29;20141;-56
2021/10/20 07:59:09;;;;;;;64.78;26.63;;;24.50;40.40;;;;;;4755894;29;20063;-58
2021/10/20 08:01:36;;;;;;;54.88;23.95;;;24.50;40.30;;;;;;4764313;30;20051;-58
2021/10/20 08:04:04;;;;;;;67.78;27.45;;;24.50;40.20;;;;;;4773282;29;20062;-59
2021/10/20 08:06:31;;;;;;;64.90;26.00;;;24.50;40.20;;;;;;4775007;29;20146;-58
2021/10/20 08:08:59;;;;;;;63.70;26.67;;;24.50;40.30;;;;;;4760825;29;20070;-59
2021/10/20 08:11:26;;;;;;;67.68;27.40;;;24.60;40.20;;;;;;4768324;29;20113;-57
2021/10/20 08:13:53;;;;;;;68.00;26.75;;;24.60;40.20;;;;;;4772023;29;20505;-59
2021/10/20 08:16:21;;;;;;;62.15;26.02;;;24.60;40.20;;;;;;4773619;29;20502;-58
2021/10/20 08:18:48;;;;;;;66.85;26.30;;;24.60;40.00;;;;;;4764671;29;20056;-59
2021/10/20 08:21:15;;;;;;;69.18;27.30;;;24.70;40.00;;;;;;4766852;29;20141;-58
2021/10/20 08:23:42;;;;;;;66.93;27.17;;;24.70;40.10;;;;;;4778924;29;20130;-56
2021/10/20 08:26:10;;;;;;;62.85;26.40;;;24.70;40.20;;;;;;4773835;29;20458;-58
2021/10/20 08:28:37;;;;;;;72.85;27.58;;;24.70;40.10;;;;;;4762121;29;20474;-58
2021/10/20 08:31:04;;;;;;;64.00;26.70;;;24.70;40.50;;;;;;4769514;29;20079;-58
2021/10/20 08:33:31;;;;;;;74.38;28.55;;;24.80;39.90;;;;;;4775052;30;20058;-58
2021/10/20 08:35:59;;;;;;;74.85;28.40;;;24.80;39.80;;;;;;4772767;30;20126;-58
2021/10/20 08:38:26;;;;;;;75.55;30.60;;;24.80;39.70;;;;;;4766052;29;20083;-59
2021/10/20 08:40:55;;;;;;;78.43;30.52;;;24.90;39.70;;;;;;4766751;29;20454;-54
2021/10/20 08:43:23;;;;;;;73.25;30.20;;;24.90;39.70;;;;;;4776895;29;20722;-56
2021/10/20 08:45:50;;;;;;;77.55;31.45;;;24.90;39.60;;;;;;4770638;29;20150;-58
2021/10/20 08:48:21;;;;;;;75.05;30.38;;;24.90;39.40;;;;;;4763311;29;20074;-58
2021/10/20 08:50:52;;;;;;;77.28;31.10;;;25.00;39.40;;;;;;4767668;30;20124;-58
2021/10/20 08:53:20;;;;;;;85.75;31.35;;;25.00;39.30;;;;;;4772389;29;20384;-57
2021/10/20 08:55:49;;;;;;;78.75;29.70;;;25.00;39.20;;;;;;4775201;29;20186;-57
2021/10/20 08:58:17;;;;;;;74.13;29.73;;;25.00;39.20;;;;;;4765248;29;20051;-57
2021/10/20 09:00:44;;;;;;;75.47;30.92;;;25.00;39.10;;;;;;4762615;29;20146;-59
2021/10/20 09:03:12;;;;;;;66.28;28.48;;;25.10;39.20;;;;;;4773416;29;20406;-58
2021/10/20 09:05:40;;;;;;;76.18;30.15;;;25.10;39.10;;;;;;4774532;29;20054;-58
2021/10/20 09:08:08;;;;;;;77.55;31.45;;;25.10;39.10;;;;;;4764284;30;20135;-57
2021/10/20 09:10:35;;;;;;;70.03;28.23;;;25.10;38.90;;;;;;4764462;30;20058;-52
2021/10/20 09:13:03;;;;;;;69.30;28.55;;;25.10;38.70;;;;;;4773957;30;20135;-58
2021/10/20 09:15:35;;;;;;;78.45;29.63;;;25.10;38.70;;;;;;4777413;29;20142;-58
2021/10/20 09:18:11;;;;;;;72.40;27.27;;;25.10;38.60;;;;;;4767991;29;20051;-58
2021/10/20 09:20:45;;;;;;;75.93;28.80;;;25.10;38.60;;;;;;4760204;29;20429;-57
2021/10/20 09:23:15;;;;;;;75.35;28.83;;;25.10;38.50;;;;;;4772304;29;20152;-59
2021/10/20 09:25:46;;;;;;;;;;;25.10;38.40;;;;;;4778361;29;20062;-58
2021/10/20 09:28:33;;;;;;;76.30;29.70;;;25.20;38.30;;;;;;4766639;29;20019;-59
2021/10/20 09:31:10;;;;;;;79.78;31.52;;;25.20;37.90;;;;;;4768026;29;20128;-59
2021/10/20 09:33:39;;;;;;;85.22;32.03;;;25.20;37.70;;;;;;4773467;30;20055;-57
2021/10/20 09:36:09;;;;;;;83.35;31.48;;;25.20;37.90;;;;;;4773301;29;20050;-56
2021/10/20 09:38:46;;;;;;;79.40;30.80;;;25.20;37.90;;;;;;4758065;29;20079;-58
2021/10/20 09:41:15;;;;;;;77.35;30.02;;;25.20;37.90;;;;;;4769007;29;20059;-57
2021/10/20 09:43:52;;;;;;;79.68;30.00;;;25.20;37.90;;;;;;4772176;29;20484;-54
2021/10/20 09:46:41;;;;;;;81.20;31.25;;;25.20;37.90;;;;;;4770769;30;20142;-55
2021/10/20 09:49:18;;;;;;;78.75;30.15;;;25.30;38.00;;;;;;4759274;29;20510;-57
2021/10/20 09:51:47;;;;;;;80.65;29.88;;;25.30;37.80;;;;;;4765741;29;20345;-54
2021/10/20 09:54:34;;;;;;;78.47;30.25;;;25.30;37.80;;;;;;4775199;29;20059;-59
2021/10/20 09:57:03;;;;;;;71.93;28.38;;;25.30;38.00;;;;;;4780562;30;20083;-58
2021/10/20 09:59:31;;;;;;;69.93;28.08;;;25.40;38.20;;;;;;4758697;29;20101;-59
2021/10/20 10:01:59;;;;;;;74.50;29.85;;;25.40;38.20;;;;;;4774337;30;20079;-59
2021/10/20 10:04:26;;;;;;;78.43;28.45;;;25.40;38.30;;;;;;4776879;29;20062;-59
2021/10/20 10:06:54;;;;;;;77.75;28.95;;;25.40;38.20;;;;;;4777628;29;20172;-57
2021/10/20 10:09:28;;;;;;;72.57;26.98;;;25.50;38.10;;;;;;4763986;29;20711;-59
2021/10/20 10:12:11;;;;;;;73.00;26.83;;;25.50;38.00;;;;;;4782209;30;20514;-59
2021/10/20 10:14:47;;;;;;;62.65;24.45;;;25.50;37.80;;;;;;4777389;29;20108;-59
2021/10/20 10:17:17;;;;;;;74.57;26.08;;;25.50;37.70;;;;;;4780367;29;20117;-59
2021/10/20 10:19:45;;;;;;;79.20;29.15;;;25.50;37.70;;;;;;4763617;29;20506;-59
2021/10/20 10:22:21;;;;;;;68.45;27.48;;;25.50;37.70;;;;;;4774966;30;20550;-59
2021/10/20 10:24:49;;;;;;;73.25;26.48;;;25.60;37.80;;;;;;4775947;29;20056;-59
2021/10/20 10:27:17;;;;;;;69.88;26.55;;;25.60;37.70;;;;;;4776666;29;20091;-59
2021/10/20 10:29:59;;;;;;;83.38;29.40;;;25.60;37.60;;;;;;4759632;30;20134;-59
2021/10/20 10:32:46;;;;;;;72.57;26.70;;;25.60;37.40;;;;;;4775500;29;20529;-58
2021/10/20 10:35:13;;;;;;;;;;;25.60;37.40;;;;;;4777911;29;20793;-60
2021/10/20 10:37:40;;;;;;;71.53;25.77;;;25.70;37.40;;;;;;4771480;29;20029;-59
2021/10/20 10:40:21;;;;;;;72.60;27.17;;;25.70;37.30;;;;;;4764923;30;20138;-55
2021/10/20 10:42:50;;;;;;;70.68;27.17;;;25.70;37.20;;;;;;4779397;30;20078;-59
2021/10/20 10:45:23;;;;;;;76.35;26.65;;;25.70;37.20;;;;;;4779708;30;20047;-59
2021/10/20 10:47:59;;;;;;;77.10;25.55;;;25.70;37.00;;;;;;4769180;29;20088;-59
2021/10/20 10:50:42;;;;;;;66.72;24.77;;;25.70;36.90;;;;;;4762141;30;20061;-58
2021/10/20 10:53:26;;;;;;;62.13;22.98;;;25.70;36.90;;;;;;4781178;29;20082;-58
2021/10/20 10:56:15;;;;;;;63.55;23.35;;;25.70;36.90;;;;;;4771374;30;20558;-59
2021/10/20 10:59:04;;;;;;;58.30;20.48;;;25.70;36.70;;;;;;4761196;29;20109;-60
2021/10/20 11:01:43;;;;;;;56.63;20.58;;;25.80;36.80;;;;;;4785305;29;20490;-58
2021/10/20 11:04:25;;;;;;;51.35;18.50;;;25.80;36.90;;;;;;4775270;30;20498;-57
2021/10/20 11:06:54;;;;;;;45.65;17.40;;;25.80;36.90;;;;;;4773091;29;20771;-57
2021/10/20 11:09:32;;;;;;;43.65;15.70;;;25.80;36.90;;;;;;4763913;29;20060;-57
2021/10/20 11:12:03;;;;;;;38.05;14.32;;;25.90;37.00;;;;;;4770838;30;20059;-57
2021/10/20 11:14:32;;;;;;;36.45;14.05;;;25.90;36.90;;;;;;4775312;29;20094;-57
2021/10/20 11:17:10;;;;;;;35.03;13.57;;;25.90;36.80;;;;;;4778718;29;20480;-57
2021/10/20 11:19:38;;;;;;;31.02;11.77;;;25.90;36.70;;;;;;4772082;29;20449;-58
2021/10/20 11:22:10;;;;;;;30.13;12.32;;;25.90;36.50;;;;;;4772252;30;20059;-57
2021/10/20 11:24:45;;;;;;;28.98;11.43;;;25.90;36.20;;;;;;4774800;29;20078;-58
2021/10/20 11:27:14;;;;;;;21.27;9.77;;;25.90;36.20;;;;;;4775261;30;20135;-58
2021/10/20 11:29:46;;;;;;;23.75;10.13;;;25.90;36.00;;;;;;4768041;29;20099;-56
2021/10/20 11:32:15;;;;;;;19.70;8.73;;;26.00;36.00;;;;;;4776603;29;20130;-57
2021/10/20 11:34:44;;;;;;;20.93;8.77;;;26.00;35.70;;;;;;4781922;29;20094;-55
2021/10/20 11:37:13;;;;;;;17.00;7.78;;;25.90;35.40;;;;;;4773093;29;22538;-57
2021/10/20 11:39:42;;;;;;;14.95;7.28;;;26.00;35.40;;;;;;4774959;29;20141;-57
2021/10/20 11:42:12;;;;;;;15.25;7.32;;;25.90;35.30;;;;;;4774459;30;20055;-54
2021/10/20 11:44:41;;;;;;;15.52;8.23;;;26.00;35.20;;;;;;4775524;29;20056;-55
2021/10/20 11:47:14;;;;;;;16.48;6.72;;;26.00;35.10;;;;;;4774909;29;20054;-55
2021/10/20 11:49:44;;;;;;;11.55;5.65;;;26.00;35.50;;;;;;4766788;29;20205;-54
2021/10/20 11:52:13;;;;;;;12.02;6.90;;;26.00;34.90;;;;;;4770807;29;20133;-55
2021/10/20 11:54:41;;;;;;;12.63;6.85;;;26.00;34.90;;;;;;4780400;29;20143;-56
2021/10/20 11:57:09;;;;;;;10.43;6.15;;;26.00;34.90;;;;;;4774281;29;20065;-54
2021/10/20 11:59:38;;;;;;;15.73;6.93;;;26.00;34.90;;;;;;4769908;29;20146;-58
2021/10/20 12:02:12;;;;;;;11.02;6.15;;;25.90;34.80;;;;;;4775295;29;20460;-54
2021/10/20 12:04:41;;;;;;;12.10;6.13;;;26.00;34.90;;;;;;4768043;29;20077;-57
2021/10/20 12:07:11;;;;;;;10.10;5.68;;;25.90;35.00;;;;;;4772895;29;20551;-58
2021/10/20 12:09:42;;;;;;;;;;;25.90;35.00;;;;;;4763124;29;20059;-55
2021/10/20 12:12:11;;;;;;;8.75;4.40;;;25.90;34.80;;;;;;4777632;29;20307;-57
2021/10/20 12:14:42;;;;;;;8.07;4.75;;;25.90;34.60;;;;;;4771742;30;20135;-57
2021/10/20 12:17:10;;;;;;;8.80;5.07;;;25.90;34.50;;;;;;4775602;29;20079;-58
2021/10/20 12:19:38;;;;;;;8.73;5.20;;;25.90;34.50;;;;;;4766144;29;20059;-58
2021/10/20 12:22:08;;;;;;;7.95;4.68;;;25.90;34.70;;;;;;4776103;29;20047;-58
2021/10/20 12:24:39;;;;;;;8.10;5.53;;;25.90;34.70;;;;;;4774426;30;20078;-58
2021/10/20 12:27:08;;;;;;;7.15;4.30;;;25.90;34.70;;;;;;4786568;29;20052;-58
2021/10/20 12:29:37;;;;;;;9.63;4.20;;;25.90;34.80;;;;;;4764355;30;20093;-58
2021/10/20 12:32:08;;;;;;;7.97;4.60;;;25.90;34.80;;;;;;4771804;29;20150;-57
2021/10/20 12:34:35;;;;;;;;;;;25.90;34.80;;;;;;4776327;29;20142;-58
2021/10/20 12:37:03;;;;;;;6.88;4.50;;;25.90;34.80;;;;;;4781022;29;19925;-58
2021/10/20 12:39:31;;;;;;;6.22;4.38;;;25.90;34.70;;;;;;4762579;29;20507;-58
2021/10/20 12:42:01;;;;;;;6.00;4.43;;;25.90;34.60;;;;;;4780732;29;20106;-58
2021/10/20 12:44:30;;;;;;;5.32;4.03;;;25.90;34.50;;;;;;4774846;29;21634;-58
2021/10/20 12:46:58;;;;;;;5.32;3.70;;;25.90;34.60;;;;;;4782595;29;20146;-57
2021/10/20 12:49:34;;;;;;;6.05;4.38;;;25.90;34.60;;;;;;4766150;29;20055;-57